Terminal Aerodrome Forecast
Issued by NWS

Home | Current Version | Previous Version | Text Only | Print | Product List | Glossary On
Versions: 1 2 3 4 5 6 7 8 9 10 11 12 13 14 15 16 17
456
FTUS43 KFGF 240520
TAFTVF
TAF
KTVF 240520Z 2406/2506 VRB06KT P6SM OVC040
      TEMPO 2407/2409 SCT040
     FM240900 28007KT P6SM SCT250
     FM241900 29016KT P6SM SCT250
     FM250100 30006KT P6SM SCT200=

USA.gov is the U.S. government's official web portal to all federal, state and local government web resources and services.